sensor_id;sensor_type;location;lat;lon;timestamp;pressure;altitude;pressure_sealevel;temperature;humidity
3260;BME280;68938;48.150;14.004;2023-05-23T00:01:12;97572.06;;;20.25;64.79
3260;BME280;68938;48.150;14.004;2023-05-23T00:03:39;97575.50;;;20.25;64.70
3260;BME280;68938;48.150;14.004;2023-05-23T00:06:06;97575.59;;;20.24;64.37
3260;BME280;68938;48.150;14.004;2023-05-23T00:08:33;97586.88;;;20.24;64.20
3260;BME280;68938;48.150;14.004;2023-05-23T00:11:00;97579.31;;;20.21;64.29
3260;BME280;68938;48.150;14.004;2023-05-23T00:13:27;97580.22;;;20.20;64.55
3260;BME280;68938;48.150;14.004;2023-05-23T00:15:54;97582.97;;;20.19;64.18
3260;BME280;68938;48.150;14.004;2023-05-23T00:18:21;97582.38;;;20.15;64.34
3260;BME280;68938;48.150;14.004;2023-05-23T00:20:48;97586.63;;;20.16;64.11
3260;BME280;68938;48.150;14.004;2023-05-23T00:23:15;97592.06;;;20.13;63.84
3260;BME280;68938;48.150;14.004;2023-05-23T00:25:42;97591.97;;;20.15;63.89
3260;BME280;68938;48.150;14.004;2023-05-23T00:28:08;97591.38;;;20.11;64.05
3260;BME280;68938;48.150;14.004;2023-05-23T00:30:35;97591.47;;;20.09;63.66
3260;BME280;68938;48.150;14.004;2023-05-23T00:33:02;97582.41;;;20.04;64.12
3260;BME280;68938;48.150;14.004;2023-05-23T00:35:30;97590.06;;;20.05;64.05
3260;BME280;68938;48.150;14.004;2023-05-23T00:37:56;97588.06;;;19.98;64.37
3260;BME280;68938;48.150;14.004;2023-05-23T00:40:23;97571.59;;;19.86;64.20
3260;BME280;68938;48.150;14.004;2023-05-23T00:42:51;97586.38;;;19.85;64.30
3260;BME280;68938;48.150;14.004;2023-05-23T00:45:18;97585.94;;;19.80;64.00
3260;BME280;68938;48.150;14.004;2023-05-23T00:47:45;97592.06;;;19.79;64.50
3260;BME280;68938;48.150;14.004;2023-05-23T00:50:14;97593.13;;;19.77;64.42
3260;BME280;68938;48.150;14.004;2023-05-23T00:52:43;97594.91;;;19.76;64.75
3260;BME280;68938;48.150;14.004;2023-05-23T00:55:11;97589.81;;;19.63;64.73
3260;BME280;68938;48.150;14.004;2023-05-23T00:57:38;97596.56;;;19.66;64.98
3260;BME280;68938;48.150;14.004;2023-05-23T01:00:11;97592.41;;;19.63;65.20
3260;BME280;68938;48.150;14.004;2023-05-23T01:02:43;97601.13;;;19.62;65.18
3260;BME280;68938;48.150;14.004;2023-05-23T01:05:14;97594.00;;;19.53;65.38
3260;BME280;68938;48.150;14.004;2023-05-23T01:07:45;97597.06;;;19.47;65.65
3260;BME280;68938;48.150;14.004;2023-05-23T01:10:14;97604.66;;;19.50;65.66
3260;BME280;68938;48.150;14.004;2023-05-23T01:16:06;97600.94;;;19.41;65.77
3260;BME280;68938;48.150;14.004;2023-05-23T01:18:58;97607.31;;;19.37;65.86
3260;BME280;68938;48.150;14.004;2023-05-23T01:21:35;97608.88;;;19.40;65.79
3260;BME280;68938;48.150;14.004;2023-05-23T01:29:53;97606.47;;;19.26;66.14
3260;BME280;68938;48.150;14.004;2023-05-23T01:32:24;97606.09;;;19.19;66.51
3260;BME280;68938;48.150;14.004;2023-05-23T01:34:53;97609.03;;;19.14;66.32
3260;BME280;68938;48.150;14.004;2023-05-23T01:37:21;97623.34;;;19.20;66.25
3260;BME280;68938;48.150;14.004;2023-05-23T01:39:48;97614.84;;;19.18;66.29
3260;BME280;68938;48.150;14.004;2023-05-23T01:42:15;97612.47;;;19.15;65.97
3260;BME280;68938;48.150;14.004;2023-05-23T01:44:44;97610.78;;;19.14;66.45
3260;BME280;68938;48.150;14.004;2023-05-23T01:47:12;97620.81;;;19.07;66.19
3260;BME280;68938;48.150;14.004;2023-05-23T01:49:40;97612.19;;;19.07;66.54
3260;BME280;68938;48.150;14.004;2023-05-23T01:52:08;97613.84;;;19.08;66.52
3260;BME280;68938;48.150;14.004;2023-05-23T01:54:37;97615.59;;;19.07;66.21
3260;BME280;68938;48.150;14.004;2023-05-23T01:57:05;97617.38;;;19.07;65.96
3260;BME280;68938;48.150;14.004;2023-05-23T01:59:32;97604.00;;;19.00;66.35
3260;BME280;68938;48.150;14.004;2023-05-23T02:01:59;97614.09;;;19.05;65.70
3260;BME280;68938;48.150;14.004;2023-05-23T02:04:27;97616.69;;;19.05;66.05
3260;BME280;68938;48.150;14.004;2023-05-23T02:06:54;97611.78;;;19.00;65.68
3260;BME280;68938;48.150;14.004;2023-05-23T02:09:21;97618.53;;;19.03;65.58
3260;BME280;68938;48.150;14.004;2023-05-23T02:11:48;97623.75;;;19.03;65.39
3260;BME280;68938;48.150;14.004;2023-05-23T02:14:15;97625.88;;;18.98;65.82
3260;BME280;68938;48.150;14.004;2023-05-23T02:16:41;97620.06;;;18.94;65.73
3260;BME280;68938;48.150;14.004;2023-05-23T02:19:09;97614.22;;;18.90;65.85
3260;BME280;68938;48.150;14.004;2023-05-23T02:21:37;97622.66;;;18.94;65.50
3260;BME280;68938;48.150;14.004;2023-05-23T02:24:04;97619.41;;;18.90;65.56
3260;BME280;68938;48.150;14.004;2023-05-23T02:26:31;97619.53;;;18.89;65.56
3260;BME280;68938;48.150;14.004;2023-05-23T02:28:58;97623.91;;;18.88;65.79
3260;BME280;68938;48.150;14.004;2023-05-23T02:31:25;97611.69;;;18.78;66.15
3260;BME280;68938;48.150;14.004;2023-05-23T02:33:52;97631.41;;;18.80;65.79
3260;BME280;68938;48.150;14.004;2023-05-23T02:36:19;97631.66;;;18.77;65.92
3260;BME280;68938;48.150;14.004;2023-05-23T02:38:46;97631.53;;;18.79;65.44
3260;BME280;68938;48.150;14.004;2023-05-23T02:41:13;97627.16;;;18.79;66.11
3260;BME280;68938;48.150;14.004;2023-05-23T02:43:40;97627.06;;;18.81;65.47
3260;BME280;68938;48.150;14.004;2023-05-23T02:46:07;97621.03;;;18.80;65.64
3260;BME280;68938;48.150;14.004;2023-05-23T02:48:34;97626.78;;;18.73;65.83
3260;BME280;68938;48.150;14.004;2023-05-23T02:51:01;97634.97;;;18.79;65.38
3260;BME280;68938;48.150;14.004;2023-05-23T02:53:28;97631.66;;;18.77;65.59
3260;BME280;68938;48.150;14.004;2023-05-23T02:55:54;97630.19;;;18.73;65.46
3260;BME280;68938;48.150;14.004;2023-05-23T02:58:21;97620.94;;;18.69;65.68
3260;BME280;68938;48.150;14.004;2023-05-23T03:00:48;97626.25;;;18.67;65.92
3260;BME280;68938;48.150;14.004;2023-05-23T03:03:15;97618.78;;;18.63;65.80
3260;BME280;68938;48.150;14.004;2023-05-23T03:05:42;97629.78;;;18.66;65.57
3260;BME280;68938;48.150;14.004;2023-05-23T03:08:09;97619.22;;;18.57;66.11
3260;BME280;68938;48.150;14.004;2023-05-23T03:10:36;97625.84;;;18.61;65.85
3260;BME280;68938;48.150;14.004;2023-05-23T03:13:03;97633.97;;;18.56;66.26
3260;BME280;68938;48.150;14.004;2023-05-23T03:15:30;97632.63;;;18.51;66.02
3260;BME280;68938;48.150;14.004;2023-05-23T03:17:57;97622.56;;;18.46;66.00
3260;BME280;68938;48.150;14.004;2023-05-23T03:20:26;97634.72;;;18.45;66.51
3260;BME280;68938;48.150;14.004;2023-05-23T03:22:53;97630.47;;;18.44;66.70
3260;BME280;68938;48.150;14.004;2023-05-23T03:25:20;97635.53;;;18.46;66.52
3260;BME280;68938;48.150;14.004;2023-05-23T03:27:47;97627.75;;;18.46;66.65
3260;BME280;68938;48.150;14.004;2023-05-23T03:30:14;97630.25;;;18.47;66.25
3260;BME280;68938;48.150;14.004;2023-05-23T03:32:41;97625.88;;;18.48;66.45
3260;BME280;68938;48.150;14.004;2023-05-23T03:35:08;97633.59;;;18.50;66.52
3260;BME280;68938;48.150;14.004;2023-05-23T03:37:35;97629.91;;;18.52;66.35
3260;BME280;68938;48.150;14.004;2023-05-23T03:40:02;97634.19;;;18.53;66.45
3260;BME280;68938;48.150;14.004;2023-05-23T03:42:30;97633.13;;;18.56;66.20
3260;BME280;68938;48.150;14.004;2023-05-23T03:44:57;97640.00;;;18.57;66.31
3260;BME280;68938;48.150;14.004;2023-05-23T03:47:25;97636.81;;;18.53;66.36
3260;BME280;68938;48.150;14.004;2023-05-23T03:49:52;97642.69;;;18.55;66.56
3260;BME280;68938;48.150;14.004;2023-05-23T03:52:19;97636.81;;;18.53;66.49
3260;BME280;68938;48.150;14.004;2023-05-23T03:54:46;97639.56;;;18.63;67.30
3260;BME280;68938;48.150;14.004;2023-05-23T03:57:13;97639.34;;;18.66;66.72
3260;BME280;68938;48.150;14.004;2023-05-23T03:59:40;97643.31;;;18.72;66.75
3260;BME280;68938;48.150;14.004;2023-05-23T04:02:07;97644.88;;;18.74;66.41
3260;BME280;68938;48.150;14.004;2023-05-23T04:04:34;97647.97;;;18.79;66.34
3260;BME280;68938;48.150;14.004;2023-05-23T04:07:01;97650.34;;;18.82;66.17
3260;BME280;68938;48.150;14.004;2023-05-23T04:09:28;97652.50;;;18.88;66.07
3260;BME280;68938;48.150;14.004;2023-05-23T04:11:56;97652.50;;;18.88;66.29
3260;BME280;68938;48.150;14.004;2023-05-23T04:14:23;97656.53;;;18.92;66.30
3260;BME280;68938;48.150;14.004;2023-05-23T04:16:50;97659.97;;;18.93;66.45
3260;BME280;68938;48.150;14.004;2023-05-23T04:19:17;97644.28;;;18.94;66.04
3260;BME280;68938;48.150;14.004;2023-05-23T04:21:44;97649.00;;;19.01;66.36
3260;BME280;68938;48.150;14.004;2023-05-23T04:24:11;97650.56;;;19.03;66.07
3260;BME280;68938;48.150;14.004;2023-05-23T04:26:38;97645.59;;;19.00;66.25
3260;BME280;68938;48.150;14.004;2023-05-23T04:29:05;97647.16;;;19.03;66.33
3260;BME280;68938;48.150;14.004;2023-05-23T04:31:32;97637.91;;;18.99;66.12
3260;BME280;68938;48.150;14.004;2023-05-23T04:33:59;97651.31;;;19.05;66.44
3260;BME280;68938;48.150;14.004;2023-05-23T04:36:26;97644.31;;;19.06;66.71
3260;BME280;68938;48.150;14.004;2023-05-23T04:38:53;97642.06;;;19.01;66.70
3260;BME280;68938;48.150;14.004;2023-05-23T04:41:20;97655.34;;;19.09;66.90
3260;BME280;68938;48.150;14.004;2023-05-23T04:43:47;97660.41;;;19.11;66.35
3260;BME280;68938;48.150;14.004;2023-05-23T04:46:13;97655.09;;;19.12;66.88
3260;BME280;68938;48.150;14.004;2023-05-23T04:48:40;97655.59;;;19.17;66.44
3260;BME280;68938;48.150;14.004;2023-05-23T04:51:07;97654.19;;;19.25;66.62
3260;BME280;68938;48.150;14.004;2023-05-23T04:53:34;97655.53;;;19.30;66.77
3260;BME280;68938;48.150;14.004;2023-05-23T04:56:01;97651.94;;;19.20;66.36
3260;BME280;68938;48.150;14.004;2023-05-23T04:58:28;97653.28;;;19.26;66.82
3260;BME280;68938;48.150;14.004;2023-05-23T05:00:55;97650.25;;;19.32;66.39
3260;BME280;68938;48.150;14.004;2023-05-23T05:03:22;97646.34;;;19.37;66.08
3260;BME280;68938;48.150;14.004;2023-05-23T05:05:49;97647.91;;;19.51;66.08
3260;BME280;68938;48.150;14.004;2023-05-23T05:08:16;97627.00;;;19.53;65.43
3260;BME280;68938;48.150;14.004;2023-05-23T05:10:43;97653.63;;;19.56;65.19
3260;BME280;68938;48.150;14.004;2023-05-23T05:13:10;97652.50;;;19.72;65.33
3260;BME280;68938;48.150;14.004;2023-05-23T05:15:37;97649.44;;;19.78;64.47
3260;BME280;68938;48.150;14.004;2023-05-23T05:18:04;97653.25;;;19.85;64.94
3260;BME280;68938;48.150;14.004;2023-05-23T05:20:31;97645.56;;;19.95;64.59
3260;BME280;68938;48.150;14.004;2023-05-23T05:22:58;97646.53;;;20.05;63.87
3260;BME280;68938;48.150;14.004;2023-05-23T05:25:25;97650.69;;;20.07;63.67
3260;BME280;68938;48.150;14.004;2023-05-23T05:27:51;97657.06;;;20.26;63.89
3260;BME280;68938;48.150;14.004;2023-05-23T05:30:19;97650.34;;;20.34;63.07
3260;BME280;68938;48.150;14.004;2023-05-23T05:32:45;97655.75;;;20.43;62.84
3260;BME280;68938;48.150;14.004;2023-05-23T05:35:12;97663.13;;;20.49;62.57
3260;BME280;68938;48.150;14.004;2023-05-23T05:37:39;97656.50;;;20.56;63.11
3260;BME280;68938;48.150;14.004;2023-05-23T05:40:07;97658.03;;;20.58;62.86
3260;BME280;68938;48.150;14.004;2023-05-23T05:42:34;97657.81;;;20.62;62.32
3260;BME280;68938;48.150;14.004;2023-05-23T05:45:01;97670.34;;;20.79;62.11
3260;BME280;68938;48.150;14.004;2023-05-23T05:47:28;97666.97;;;20.99;62.10
3260;BME280;68938;48.150;14.004;2023-05-23T05:49:55;97669.00;;;20.85;62.19
3260;BME280;68938;48.150;14.004;2023-05-23T05:52:21;97667.31;;;20.95;61.78
3260;BME280;68938;48.150;14.004;2023-05-23T05:54:48;97661.34;;;21.15;61.35
3260;BME280;68938;48.150;14.004;2023-05-23T05:57:15;97668.97;;;21.07;61.46
3260;BME280;68938;48.150;14.004;2023-05-23T05:59:42;97668.03;;;21.29;61.10
3260;BME280;68938;48.150;14.004;2023-05-23T06:02:09;97669.88;;;21.49;60.93
3260;BME280;68938;48.150;14.004;2023-05-23T06:04:36;97668.66;;;21.65;60.32
3260;BME280;68938;48.150;14.004;2023-05-23T06:07:03;97672.84;;;21.77;60.38
3260;BME280;68938;48.150;14.004;2023-05-23T06:09:30;97670.84;;;21.90;60.54
3260;BME280;68938;48.150;14.004;2023-05-23T06:11:57;97670.53;;;22.05;60.55
3260;BME280;68938;48.150;14.004;2023-05-23T06:14:24;97671.88;;;22.20;60.31
3260;BME280;68938;48.150;14.004;2023-05-23T06:16:51;97668.22;;;22.32;60.26
3260;BME280;68938;48.150;14.004;2023-05-23T06:19:18;97677.78;;;22.43;59.94
3260;BME280;68938;48.150;14.004;2023-05-23T06:21:45;97669.56;;;22.57;59.62
3260;BME280;68938;48.150;14.004;2023-05-23T06:24:12;97667.09;;;22.65;59.62
3260;BME280;68938;48.150;14.004;2023-05-23T06:26:39;97667.94;;;22.76;59.08
3260;BME280;68938;48.150;14.004;2023-05-23T06:29:06;97665.63;;;22.82;58.80
3260;BME280;68938;48.150;14.004;2023-05-23T06:31:33;97674.78;;;22.98;58.75
3260;BME280;68938;48.150;14.004;2023-05-23T06:34:00;97669.97;;;23.03;58.18
3260;BME280;68938;48.150;14.004;2023-05-23T06:36:27;97664.88;;;23.11;57.86
3260;BME280;68938;48.150;14.004;2023-05-23T06:38:54;97654.56;;;23.19;57.56
3260;BME280;68938;48.150;14.004;2023-05-23T06:41:21;97673.19;;;23.35;58.48
3260;BME280;68938;48.150;14.004;2023-05-23T06:43:48;97664.91;;;23.40;58.61
3260;BME280;68938;48.150;14.004;2023-05-23T06:46:15;97666.53;;;23.51;58.30
3260;BME280;68938;48.150;14.004;2023-05-23T06:49:05;97667.78;;;23.56;57.31
3260;BME280;68938;48.150;14.004;2023-05-23T06:51:38;97669.72;;;23.64;57.28
3260;BME280;68938;48.150;14.004;2023-05-23T06:54:06;97677.72;;;23.72;57.01
3260;BME280;68938;48.150;14.004;2023-05-23T06:56:33;97681.44;;;23.79;57.30
3260;BME280;68938;48.150;14.004;2023-05-23T06:58:59;97675.78;;;23.84;57.20
3260;BME280;68938;48.150;14.004;2023-05-23T07:01:26;97670.81;;;23.91;57.58
3260;BME280;68938;48.150;14.004;2023-05-23T07:03:53;97666.41;;;23.91;57.11
3260;BME280;68938;48.150;14.004;2023-05-23T07:06:20;97657.56;;;23.92;57.29
3260;BME280;68938;48.150;14.004;2023-05-23T07:08:48;97673.41;;;24.00;58.02
3260;BME280;68938;48.150;14.004;2023-05-23T07:11:14;97669.38;;;24.06;58.21
3260;BME280;68938;48.150;14.004;2023-05-23T07:13:41;97678.47;;;24.11;58.14
3260;BME280;68938;48.150;14.004;2023-05-23T07:16:08;97670.75;;;24.10;56.54
3260;BME280;68938;48.150;14.004;2023-05-23T07:18:35;97673.22;;;24.11;56.13
3260;BME280;68938;48.150;14.004;2023-05-23T07:21:04;97678.03;;;24.16;55.71
3260;BME280;68938;48.150;14.004;2023-05-23T07:23:31;97679.72;;;24.17;55.55
3260;BME280;68938;48.150;14.004;2023-05-23T07:25:59;97674.84;;;24.22;55.54
3260;BME280;68938;48.150;14.004;2023-05-23T07:28:28;97682.53;;;24.33;55.96
3260;BME280;68938;48.150;14.004;2023-05-23T07:30:55;97670.81;;;24.38;56.55
3260;BME280;68938;48.150;14.004;2023-05-23T07:33:23;97684.19;;;24.44;56.54
3260;BME280;68938;48.150;14.004;2023-05-23T07:35:49;97680.97;;;24.50;55.16
3260;BME280;68938;48.150;14.004;2023-05-23T07:38:16;97685.81;;;24.55;54.03
3260;BME280;68938;48.150;14.004;2023-05-23T07:40:43;97673.47;;;24.65;54.37
3260;BME280;68938;48.150;14.004;2023-05-23T07:43:20;97678.19;;;24.89;53.96
3260;BME280;68938;48.150;14.004;2023-05-23T07:45:47;97670.44;;;25.15;53.15
3260;BME280;68938;48.150;14.004;2023-05-23T07:48:14;97675.47;;;25.44;52.32
3260;BME280;68938;48.150;14.004;2023-05-23T07:50:41;97681.06;;;25.67;51.25
3260;BME280;68938;48.150;14.004;2023-05-23T07:53:08;97681.47;;;25.55;49.80
3260;BME280;68938;48.150;14.004;2023-05-23T07:55:35;97679.50;;;25.74;48.65
3260;BME280;68938;48.150;14.004;2023-05-23T07:58:02;97667.88;;;25.59;49.56
3260;BME280;68938;48.150;14.004;2023-05-23T08:00:30;97675.63;;;25.61;49.53
3260;BME280;68938;48.150;14.004;2023-05-23T08:02:57;97677.69;;;25.57;48.74
3260;BME280;68938;48.150;14.004;2023-05-23T08:05:24;97659.09;;;25.94;48.33
3260;BME280;68938;48.150;14.004;2023-05-23T08:07:51;97668.25;;;25.82;49.00
3260;BME280;68938;48.150;14.004;2023-05-23T08:10:18;97663.75;;;26.00;49.38
3260;BME280;68938;48.150;14.004;2023-05-23T08:12:45;97657.84;;;25.98;48.76
3260;BME280;68938;48.150;14.004;2023-05-23T08:15:12;97656.75;;;26.43;48.57
3260;BME280;68938;48.150;14.004;2023-05-23T08:17:39;97665.66;;;26.16;47.35
3260;BME280;68938;48.150;14.004;2023-05-23T08:20:06;97659.63;;;26.24;47.61
3260;BME280;68938;48.150;14.004;2023-05-23T08:22:34;97666.81;;;26.22;47.29
3260;BME280;68938;48.150;14.004;2023-05-23T08:25:01;97662.75;;;26.02;47.23
3260;BME280;68938;48.150;14.004;2023-05-23T08:27:28;97656.56;;;26.71;46.44
3260;BME280;68938;48.150;14.004;2023-05-23T08:29:55;97652.81;;;26.90;46.24
3260;BME280;68938;48.150;14.004;2023-05-23T08:32:22;97656.13;;;27.00;45.43
3260;BME280;68938;48.150;14.004;2023-05-23T08:34:49;97657.53;;;26.70;45.74
3260;BME280;68938;48.150;14.004;2023-05-23T08:37:16;97657.13;;;27.07;45.01
3260;BME280;68938;48.150;14.004;2023-05-23T08:39:43;97658.38;;;27.29;44.81
3260;BME280;68938;48.150;14.004;2023-05-23T08:42:10;97663.97;;;27.43;43.36
3260;BME280;68938;48.150;14.004;2023-05-23T08:44:37;97652.28;;;27.45;44.13
3260;BME280;68938;48.150;14.004;2023-05-23T08:47:06;97672.19;;;27.23;44.17
3260;BME280;68938;48.150;14.004;2023-05-23T08:49:34;97666.94;;;26.73;44.58
3260;BME280;68938;48.150;14.004;2023-05-23T08:52:04;97665.53;;;26.94;45.70
3260;BME280;68938;48.150;14.004;2023-05-23T08:54:31;97669.22;;;27.18;45.54
3260;BME280;68938;48.150;14.004;2023-05-23T08:56:58;97668.56;;;27.24;44.76
3260;BME280;68938;48.150;14.004;2023-05-23T08:59:25;97663.13;;;27.34;44.43
3260;BME280;68938;48.150;14.004;2023-05-23T09:01:54;97669.41;;;27.41;44.59
3260;BME280;68938;48.150;14.004;2023-05-23T09:04:22;97663.84;;;27.77;43.90
3260;BME280;68938;48.150;14.004;2023-05-23T09:06:49;97662.00;;;27.94;43.07
3260;BME280;68938;48.150;14.004;2023-05-23T09:09:16;97663.81;;;27.52;45.03
3260;BME280;68938;48.150;14.004;2023-05-23T09:11:43;97658.88;;;27.74;44.83
3260;BME280;68938;48.150;14.004;2023-05-23T09:14:11;97655.72;;;28.03;43.79
3260;BME280;68938;48.150;14.004;2023-05-23T09:16:38;97662.78;;;28.19;43.91
3260;BME280;68938;48.150;14.004;2023-05-23T09:19:12;97669.66;;;28.36;44.26
3260;BME280;68938;48.150;14.004;2023-05-23T09:21:44;97660.66;;;28.14;43.87
3260;BME280;68938;48.150;14.004;2023-05-23T09:24:11;97659.31;;;28.10;43.88
3260;BME280;68938;48.150;14.004;2023-05-23T09:26:45;97670.00;;;28.17;43.42
3260;BME280;68938;48.150;14.004;2023-05-23T09:29:13;97661.81;;;27.95;43.83
3260;BME280;68938;48.150;14.004;2023-05-23T09:31:40;97666.09;;;27.72;44.55
3260;BME280;68938;48.150;14.004;2023-05-23T09:34:07;97665.63;;;27.93;44.83
3260;BME280;68938;48.150;14.004;2023-05-23T09:36:34;97653.03;;;28.27;45.69
3260;BME280;68938;48.150;14.004;2023-05-23T09:39:02;97656.56;;;28.59;44.94
3260;BME280;68938;48.150;14.004;2023-05-23T09:41:32;97660.38;;;28.56;44.18
3260;BME280;68938;48.150;14.004;2023-05-23T09:44:04;97666.31;;;27.86;44.25
3260;BME280;68938;48.150;14.004;2023-05-23T09:46:35;97656.69;;;28.10;43.62
3260;BME280;68938;48.150;14.004;2023-05-23T09:49:05;97674.03;;;27.88;44.49
3260;BME280;68938;48.150;14.004;2023-05-23T09:51:41;97662.97;;;27.68;45.69
3260;BME280;68938;48.150;14.004;2023-05-23T09:54:08;97665.78;;;27.91;44.56
3260;BME280;68938;48.150;14.004;2023-05-23T09:56:39;97662.16;;;28.00;43.84
3260;BME280;68938;48.150;14.004;2023-05-23T09:59:07;97664.63;;;27.36;44.38
3260;BME280;68938;48.150;14.004;2023-05-23T10:01:35;97654.06;;;27.69;43.57
3260;BME280;68938;48.150;14.004;2023-05-23T10:04:04;97668.44;;;27.67;44.35
3260;BME280;68938;48.150;14.004;2023-05-23T10:06:38;97657.38;;;27.55;44.21
3260;BME280;68938;48.150;14.004;2023-05-23T10:09:11;97658.69;;;27.51;44.62
3260;BME280;68938;48.150;14.004;2023-05-23T10:14:46;97666.44;;;27.36;42.07
3260;BME280;68938;48.150;14.004;2023-05-23T10:17:28;97671.47;;;27.05;43.68
3260;BME280;68938;48.150;14.004;2023-05-23T10:20:03;97672.44;;;27.04;44.69
3260;BME280;68938;48.150;14.004;2023-05-23T10:22:38;97665.50;;;26.86;45.91
3260;BME280;68938;48.150;14.004;2023-05-23T10:25:06;97663.84;;;26.93;44.82
3260;BME280;68938;48.150;14.004;2023-05-23T10:27:35;97653.44;;;27.26;44.99
3260;BME280;68938;48.150;14.004;2023-05-23T10:30:07;97652.44;;;27.52;44.99
3260;BME280;68938;48.150;14.004;2023-05-23T10:32:37;97640.41;;;27.65;45.06
3260;BME280;68938;48.150;14.004;2023-05-23T10:41:32;97645.19;;;27.70;41.43
3260;BME280;68938;48.150;14.004;2023-05-23T10:44:19;97644.38;;;27.61;41.65
3260;BME280;68938;48.150;14.004;2023-05-23T10:46:52;97628.41;;;27.63;41.84
3260;BME280;68938;48.150;14.004;2023-05-23T10:49:45;97628.06;;;27.91;41.74
3260;BME280;68938;48.150;14.004;2023-05-23T10:52:15;97625.25;;;28.00;42.66
3260;BME280;68938;48.150;14.004;2023-05-23T10:54:53;97624.94;;;27.87;43.19
3260;BME280;68938;48.150;14.004;2023-05-23T10:57:23;97620.47;;;28.04;43.81
3260;BME280;68938;48.150;14.004;2023-05-23T10:59:52;97611.03;;;28.09;42.52
3260;BME280;68938;48.150;14.004;2023-05-23T11:02:25;97621.63;;;28.49;41.76
3260;BME280;68938;48.150;14.004;2023-05-23T11:05:22;97627.00;;;28.24;42.68
3260;BME280;68938;48.150;14.004;2023-05-23T11:08:09;97625.00;;;28.26;41.43
3260;BME280;68938;48.150;14.004;2023-05-23T11:10:59;97625.91;;;27.86;42.67
3260;BME280;68938;48.150;14.004;2023-05-23T11:13:57;97624.63;;;27.90;42.55
3260;BME280;68938;48.150;14.004;2023-05-23T11:16:39;97621.16;;;27.81;43.41
3260;BME280;68938;48.150;14.004;2023-05-23T11:19:21;97627.97;;;28.23;41.22
3260;BME280;68938;48.150;14.004;2023-05-23T11:21:51;97625.19;;;28.17;41.99
3260;BME280;68938;48.150;14.004;2023-05-23T11:24:49;97625.28;;;27.84;42.60
3260;BME280;68938;48.150;14.004;2023-05-23T11:30:00;97618.84;;;27.86;42.31
3260;BME280;68938;48.150;14.004;2023-05-23T11:32:29;97608.97;;;28.36;42.05
3260;BME280;68938;48.150;14.004;2023-05-23T11:35:04;97624.34;;;28.24;42.32
3260;BME280;68938;48.150;14.004;2023-05-23T11:37:33;97603.19;;;27.85;43.75
3260;BME280;68938;48.150;14.004;2023-05-23T11:40:26;97597.94;;;28.32;42.28
3260;BME280;68938;48.150;14.004;2023-05-23T11:43:07;97602.38;;;28.71;41.39
3260;BME280;68938;48.150;14.004;2023-05-23T11:45:38;97597.03;;;28.56;41.69
3260;BME280;68938;48.150;14.004;2023-05-23T11:50:57;97592.66;;;29.03;41.59
3260;BME280;68938;48.150;14.004;2023-05-23T11:53:26;97602.50;;;28.47;41.38
3260;BME280;68938;48.150;14.004;2023-05-23T11:55:55;97588.53;;;28.30;42.42
3260;BME280;68938;48.150;14.004;2023-05-23T11:58:31;97604.25;;;28.15;42.74
3260;BME280;68938;48.150;14.004;2023-05-23T12:01:07;97638.88;;;27.06;46.54
3260;BME280;68938;48.150;14.004;2023-05-23T12:03:46;97638.16;;;26.71;46.92
3260;BME280;68938;48.150;14.004;2023-05-23T12:06:18;97664.09;;;24.90;57.05
3260;BME280;68938;48.150;14.004;2023-05-23T12:08:53;97673.09;;;24.13;61.78
3260;BME280;68938;48.150;14.004;2023-05-23T12:11:20;97682.13;;;23.81;64.52
3260;BME280;68938;48.150;14.004;2023-05-23T12:13:47;97689.97;;;23.23;67.60
3260;BME280;68938;48.150;14.004;2023-05-23T12:16:14;97698.38;;;23.36;65.23
3260;BME280;68938;48.150;14.004;2023-05-23T12:18:41;97699.47;;;23.82;64.92
3260;BME280;68938;48.150;14.004;2023-05-23T12:21:09;97696.31;;;23.69;64.61
3260;BME280;68938;48.150;14.004;2023-05-23T12:23:38;97691.78;;;23.81;65.40
3260;BME280;68938;48.150;14.004;2023-05-23T12:26:06;97687.78;;;23.86;65.04
3260;BME280;68938;48.150;14.004;2023-05-23T12:31:17;97703.63;;;23.75;65.60
3260;BME280;68938;48.150;14.004;2023-05-23T12:33:46;97706.50;;;23.24;64.55
3260;BME280;68938;48.150;14.004;2023-05-23T12:36:21;97702.19;;;23.03;63.56
3260;BME280;68938;48.150;14.004;2023-05-23T12:38:49;97693.09;;;23.07;60.42
3260;BME280;68938;48.150;14.004;2023-05-23T12:41:18;97691.06;;;23.21;60.42
3260;BME280;68938;48.150;14.004;2023-05-23T12:43:53;97694.78;;;23.18;61.05
3260;BME280;68938;48.150;14.004;2023-05-23T12:46:25;97713.94;;;23.18;62.55
3260;BME280;68938;48.150;14.004;2023-05-23T12:48:53;97718.66;;;22.84;64.64
3260;BME280;68938;48.150;14.004;2023-05-23T12:51:20;97720.91;;;22.99;63.16
3260;BME280;68938;48.150;14.004;2023-05-23T12:53:47;97716.03;;;22.84;62.27
3260;BME280;68938;48.150;14.004;2023-05-23T12:56:14;97719.66;;;22.93;61.56
3260;BME280;68938;48.150;14.004;2023-05-23T12:58:41;97722.97;;;22.64;62.69
3260;BME280;68938;48.150;14.004;2023-05-23T13:01:08;97730.09;;;22.62;61.70
3260;BME280;68938;48.150;14.004;2023-05-23T13:03:35;97736.16;;;22.63;62.74
3260;BME280;68938;48.150;14.004;2023-05-23T13:06:03;97744.06;;;22.73;62.40
3260;BME280;68938;48.150;14.004;2023-05-23T13:08:30;97747.72;;;22.60;63.24
3260;BME280;68938;48.150;14.004;2023-05-23T13:10:57;97731.28;;;22.79;62.54
3260;BME280;68938;48.150;14.004;2023-05-23T13:13:25;97718.88;;;22.71;63.37
3260;BME280;68938;48.150;14.004;2023-05-23T13:15:51;97705.09;;;22.60;62.31
3260;BME280;68938;48.150;14.004;2023-05-23T13:18:18;97710.16;;;22.61;64.12
3260;BME280;68938;48.150;14.004;2023-05-23T13:20:45;97703.59;;;22.36;64.78
3260;BME280;68938;48.150;14.004;2023-05-23T13:23:12;97702.72;;;22.26;65.38
3260;BME280;68938;48.150;14.004;2023-05-23T13:25:39;97696.06;;;22.01;67.35
3260;BME280;68938;48.150;14.004;2023-05-23T13:28:07;97709.38;;;21.77;69.77
3260;BME280;68938;48.150;14.004;2023-05-23T13:30:34;97711.66;;;21.49;70.66
3260;BME280;68938;48.150;14.004;2023-05-23T13:33:01;97700.53;;;21.36;73.13
3260;BME280;68938;48.150;14.004;2023-05-23T13:35:29;97707.25;;;21.82;72.11